Aviation Digital Data Service (ADDS)

Output produced by METARs form (1848 UTC 02 October 2022)
found at http://www.aviationweather.gov/metar/data/
 
METAR text: ENGM 021820Z 00000KT 9999 FEW003 SCT064 08/07 Q1009 NOSIG
Conditions at: ENGM (OSLO/GARDERMOEN , NO) observed 1820 UTC 02 October 2022
Temperature: 8.0°C (46°F)
Dewpoint: 7.0°C (45°F) [RH = 93%]
Pressure (altimeter): 29.79 inches Hg (1009.0 mb)
Winds: calm
Visibility: 6 or more miles (10+ km)
Ceiling: at least 12,000 feet AGL
Clouds: few clouds at 300 feet AGL
scattered clouds at 6400 feet AGL
Weather: no significant weather observed at this time

METAR text: ENGM 021750Z VRB02KT 9999 FEW019 SCT067 09/07 Q1009 NOSIG
Conditions at: ENGM (OSLO/GARDERMOEN , NO) observed 1750 UTC 02 October 2022
Temperature: 9.0°C (48°F)
Dewpoint: 7.0°C (45°F) [RH = 87%]
Pressure (altimeter): 29.79 inches Hg (1009.0 mb)
Winds: variable direction winds at 2 MPH (2 knots; 1.0 m/s)
Visibility: 6 or more miles (10+ km)
Ceiling: at least 12,000 feet AGL
Clouds: few clouds at 1900 feet AGL
scattered clouds at 6700 feet AGL
Weather: no significant weather observed at this time

METAR text: ENGM 021720Z VRB02KT CAVOK 10/07 Q1009 NOSIG
Conditions at: ENGM (OSLO/GARDERMOEN , NO) observed 1720 UTC 02 October 2022
Temperature: 10.0°C (50°F)
Dewpoint: 7.0°C (45°F) [RH = 82%]
Pressure (altimeter): 29.79 inches Hg (1009.0 mb)
Winds: variable direction winds at 2 MPH (2 knots; 1.0 m/s)
Visibility: 6 or more miles (10+ km)
Ceiling: ceiling and visibility are OK
Clouds: unknown
Weather: no significant weather observed at this time

METAR text: ENGM 021650Z 07003KT 030V090 CAVOK 10/07 Q1008 NOSIG
Conditions at: ENGM (OSLO/GARDERMOEN , NO) observed 1650 UTC 02 October 2022
Temperature: 10.0°C (50°F)
Dewpoint: 7.0°C (45°F) [RH = 82%]
Pressure (altimeter): 29.76 inches Hg (1008.0 mb)
Winds: from the ENE (70 degrees) at 3 MPH (3 knots; 1.5 m/s)
Visibility: 6 or more miles (10+ km)
Ceiling: ceiling and visibility are OK
Clouds: unknown
Weather: no significant weather observed at this time

METAR text: ENGM 021620Z 08004KT 020V130 9999 FEW025 BKN060 11/07 Q1008 NOSIG
Conditions at: ENGM (OSLO/GARDERMOEN , NO) observed 1620 UTC 02 October 2022
Temperature: 11.0°C (52°F)
Dewpoint: 7.0°C (45°F) [RH = 76%]
Pressure (altimeter): 29.76 inches Hg (1008.0 mb)
Winds: from the E (80 degrees) at 5 MPH (4 knots; 2.1 m/s)
Visibility: 6 or more miles (10+ km)
Ceiling: 6000 feet AGL
Clouds: few clouds at 2500 feet AGL
broken clouds at 6000 feet AGL
Weather: no significant weather observed at this time

METAR text: ENGM 021550Z 08003KT 020V120 9999 FEW025 BKN060 11/08 Q1008 NOSIG
Conditions at: ENGM (OSLO/GARDERMOEN , NO) observed 1550 UTC 02 October 2022
Temperature: 11.0°C (52°F)
Dewpoint: 8.0°C (46°F) [RH = 82%]
Pressure (altimeter): 29.76 inches Hg (1008.0 mb)
Winds: from the E (80 degrees) at 3 MPH (3 knots; 1.5 m/s)
Visibility: 6 or more miles (10+ km)
Ceiling: 6000 feet AGL
Clouds: few clouds at 2500 feet AGL
broken clouds at 6000 feet AGL
Weather: no significant weather observed at this time

METAR text: ENGM 021520Z VRB02KT 9999 SCT018 BKN060 12/07 Q1007 NOSIG
Conditions at: ENGM (OSLO/GARDERMOEN , NO) observed 1520 UTC 02 October 2022
Temperature: 12.0°C (54°F)
Dewpoint: 7.0°C (45°F) [RH = 71%]
Pressure (altimeter): 29.73 inches Hg (1007.0 mb)
Winds: variable direction winds at 2 MPH (2 knots; 1.0 m/s)
Visibility: 6 or more miles (10+ km)
Ceiling: 6000 feet AGL
Clouds: scattered clouds at 1800 feet AGL
broken clouds at 6000 feet AGL
Weather: no significant weather observed at this time

METAR text: ENGM 021450Z 31003KT 270V340 9999 FEW019 BKN060 12/08 Q1007 NOSIG
Conditions at: ENGM (OSLO/GARDERMOEN , NO) observed 1450 UTC 02 October 2022
Temperature: 12.0°C (54°F)
Dewpoint: 8.0°C (46°F) [RH = 76%]
Pressure (altimeter): 29.73 inches Hg (1007.0 mb)
Winds: from the NW (310 degrees) at 3 MPH (3 knots; 1.5 m/s)
Visibility: 6 or more miles (10+ km)
Ceiling: 6000 feet AGL
Clouds: few clouds at 1900 feet AGL
broken clouds at 6000 feet AGL
Weather: no significant weather observed at this time

METAR text: ENGM 021420Z 32003KT 280V350 9999 SCT022 FEW024TCU BKN060 12/08 Q1007 NOSIG
Conditions at: ENGM (OSLO/GARDERMOEN , NO) observed 1420 UTC 02 October 2022
Temperature: 12.0°C (54°F)
Dewpoint: 8.0°C (46°F) [RH = 76%]
Pressure (altimeter): 29.73 inches Hg (1007.0 mb)
Winds: from the NW (320 degrees) at 3 MPH (3 knots; 1.5 m/s)
Visibility: 6 or more miles (10+ km)
Ceiling: 6000 feet AGL
Clouds: scattered clouds at 2200 feet AGL
few clouds at 2400 feet AGL
broken clouds at 6000 feet AGL
Weather: no significant weather observed at this time

METAR text: ENGM 021350Z 30003KT 240V350 9999 SCT024 FEW025TCU 12/06 Q1007 NOSIG
Conditions at: ENGM (OSLO/GARDERMOEN , NO) observed 1350 UTC 02 October 2022
Temperature: 12.0°C (54°F)
Dewpoint: 6.0°C (43°F) [RH = 67%]
Pressure (altimeter): 29.73 inches Hg (1007.0 mb)
Winds: from the WNW (300 degrees) at 3 MPH (3 knots; 1.5 m/s)
Visibility: 6 or more miles (10+ km)
Ceiling: at least 12,000 feet AGL
Clouds: scattered clouds at 2400 feet AGL
few clouds at 2500 feet AGL
Weather: no significant weather observed at this time

METAR text: ENGM 021320Z 34004KT 290V020 9999 FEW020TCU SCT025 12/07 Q1006 NOSIG
Conditions at: ENGM (OSLO/GARDERMOEN , NO) observed 1320 UTC 02 October 2022
Temperature: 12.0°C (54°F)
Dewpoint: 7.0°C (45°F) [RH = 71%]
Pressure (altimeter): 29.70 inches Hg (1006.0 mb)
Winds: from the NNW (340 degrees) at 5 MPH (4 knots; 2.1 m/s)
Visibility: 6 or more miles (10+ km)
Ceiling: at least 12,000 feet AGL
Clouds: few clouds at 2000 feet AGL
scattered clouds at 2500 feet AGL
Weather: no significant weather observed at this time

METAR text: ENGM 021250Z 36006KT 330V040 9999 FEW021TCU SCT029 12/07 Q1006 NOSIG
Conditions at: ENGM (OSLO/GARDERMOEN , NO) observed 1250 UTC 02 October 2022
Temperature: 12.0°C (54°F)
Dewpoint: 7.0°C (45°F) [RH = 71%]
Pressure (altimeter): 29.70 inches Hg (1006.0 mb)
Winds: from the N (360 degrees) at 7 MPH (6 knots; 3.1 m/s)
Visibility: 6 or more miles (10+ km)
Ceiling: at least 12,000 feet AGL
Clouds: few clouds at 2100 feet AGL
scattered clouds at 2900 feet AGL
Weather: no significant weather observed at this time

METAR text: ENGM 021220Z 04004KT 360V080 9999 SCT021TCU 12/07 Q1006 NOSIG
Conditions at: ENGM (OSLO/GARDERMOEN , NO) observed 1220 UTC 02 October 2022
Temperature: 12.0°C (54°F)
Dewpoint: 7.0°C (45°F) [RH = 71%]
Pressure (altimeter): 29.70 inches Hg (1006.0 mb)
Winds: from the NE (40 degrees) at 5 MPH (4 knots; 2.1 m/s)
Visibility: 6 or more miles (10+ km)
Ceiling: at least 12,000 feet AGL
Clouds: scattered clouds at 2100 feet AGL
Weather: no significant weather observed at this time

METAR text: ENGM 021150Z VRB03KT 9999 FEW014 FEW025TCU BKN180 12/08 Q1006 NOSIG
Conditions at: ENGM (OSLO/GARDERMOEN , NO) observed 1150 UTC 02 October 2022
Temperature: 12.0°C (54°F)
Dewpoint: 8.0°C (46°F) [RH = 76%]
Pressure (altimeter): 29.70 inches Hg (1006.0 mb)
Winds: variable direction winds at 3 MPH (3 knots; 1.5 m/s)
Visibility: 6 or more miles (10+ km)
Ceiling: 18000 feet AGL
Clouds: few clouds at 1400 feet AGL
few clouds at 2500 feet AGL
broken clouds at 18000 feet AGL
Weather: no significant weather observed at this time

METAR text: ENGM 021120Z 02005KT 9999 SCT013 BKN039 11/08 Q1005 NOSIG
Conditions at: ENGM (OSLO/GARDERMOEN , NO) observed 1120 UTC 02 October 2022
Temperature: 11.0°C (52°F)
Dewpoint: 8.0°C (46°F) [RH = 82%]
Pressure (altimeter): 29.68 inches Hg (1005.0 mb)
Winds: from the NNE (20 degrees) at 6 MPH (5 knots; 2.6 m/s)
Visibility: 6 or more miles (10+ km)
Ceiling: 3900 feet AGL
Clouds: scattered clouds at 1300 feet AGL
broken clouds at 3900 feet AGL
Weather: no significant weather observed at this time

METAR text: ENGM 021050Z 02006KT 9999 FEW008 BKN020 11/09 Q1005 NOSIG
Conditions at: ENGM (OSLO/GARDERMOEN , NO) observed 1050 UTC 02 October 2022
Temperature: 11.0°C (52°F)
Dewpoint: 9.0°C (48°F) [RH = 87%]
Pressure (altimeter): 29.68 inches Hg (1005.0 mb)
Winds: from the NNE (20 degrees) at 7 MPH (6 knots; 3.1 m/s)
Visibility: 6 or more miles (10+ km)
Ceiling: 2000 feet AGL
Clouds: few clouds at 800 feet AGL
broken clouds at 2000 feet AGL
Weather: no significant weather observed at this time

METAR text: ENGM 021020Z 03005KT 9999 -SHRA FEW018 BKN037 10/08 Q1005 NOSIG
Conditions at: ENGM (OSLO/GARDERMOEN , NO) observed 1020 UTC 02 October 2022
Temperature: 10.0°C (50°F)
Dewpoint: 8.0°C (46°F) [RH = 87%]
Pressure (altimeter): 29.68 inches Hg (1005.0 mb)
Winds: from the NNE (30 degrees) at 6 MPH (5 knots; 2.6 m/s)
Visibility: 6 or more miles (10+ km)
Ceiling: 3700 feet AGL
Clouds: few clouds at 1800 feet AGL
broken clouds at 3700 feet AGL
Weather: -SHRA  (light rain showers)

METAR text: ENGM 020950Z 01005KT 9999 VCSH FEW012 BKN035 10/08 Q1005 NOSIG
Conditions at: ENGM (OSLO/GARDERMOEN , NO) observed 0950 UTC 02 October 2022
Temperature: 10.0°C (50°F)
Dewpoint: 8.0°C (46°F) [RH = 87%]
Pressure (altimeter): 29.68 inches Hg (1005.0 mb)
Winds: from the N (10 degrees) at 6 MPH (5 knots; 2.6 m/s)
Visibility: 6 or more miles (10+ km)
Ceiling: 3500 feet AGL
Clouds: few clouds at 1200 feet AGL
broken clouds at 3500 feet AGL
Weather: VCSH  (showers in vicinity)

METAR text: ENGM 020920Z 01005KT 9999 VCSH FEW010 SCT035 BKN040 10/08 Q1004 NOSIG
Conditions at: ENGM (OSLO/GARDERMOEN , NO) observed 0920 UTC 02 October 2022
Temperature: 10.0°C (50°F)
Dewpoint: 8.0°C (46°F) [RH = 87%]
Pressure (altimeter): 29.65 inches Hg (1004.0 mb)
Winds: from the N (10 degrees) at 6 MPH (5 knots; 2.6 m/s)
Visibility: 6 or more miles (10+ km)
Ceiling: 4000 feet AGL
Clouds: few clouds at 1000 feet AGL
scattered clouds at 3500 feet AGL
broken clouds at 4000 feet AGL
Weather: VCSH  (showers in vicinity)

METAR text: ENGM 020850Z 01004KT 9999 -RA FEW005 SCT017 BKN040 09/08 Q1004 NOSIG
Conditions at: ENGM (OSLO/GARDERMOEN , NO) observed 0850 UTC 02 October 2022
Temperature: 9.0°C (48°F)
Dewpoint: 8.0°C (46°F) [RH = 93%]
Pressure (altimeter): 29.65 inches Hg (1004.0 mb)
Winds: from the N (10 degrees) at 5 MPH (4 knots; 2.1 m/s)
Visibility: 6 or more miles (10+ km)
Ceiling: 4000 feet AGL
Clouds: few clouds at 500 feet AGL
scattered clouds at 1700 feet AGL
broken clouds at 4000 feet AGL
Weather: -RA  (light rain)

METAR text: ENGM 020820Z 36002KT 9999 -RA FEW005 SCT017 BKN038 08/08 Q1004 NOSIG
Conditions at: ENGM (OSLO/GARDERMOEN , NO) observed 0820 UTC 02 October 2022
Temperature: 8.0°C (46°F)
Dewpoint: 8.0°C (46°F) [RH = 100%]
Pressure (altimeter): 29.65 inches Hg (1004.0 mb)
Winds: from the N (360 degrees) at 2 MPH (2 knots; 1.0 m/s)
Visibility: 6 or more miles (10+ km)
Ceiling: 3800 feet AGL
Clouds: few clouds at 500 feet AGL
scattered clouds at 1700 feet AGL
broken clouds at 3800 feet AGL
Weather: -RA  (light rain)

METAR text: ENGM 020750Z VRB02KT 9999 -RA FEW004 SCT022 BKN037 08/08 Q1004 TEMPO 35010KT
Conditions at: ENGM (OSLO/GARDERMOEN , NO) observed 0750 UTC 02 October 2022
Temperature: 8.0°C (46°F)
Dewpoint: 8.0°C (46°F) [RH = 100%]
Pressure (altimeter): 29.65 inches Hg (1004.0 mb)
Winds: variable direction winds at 2 MPH (2 knots; 1.0 m/s)
Visibility: 6 or more miles (10+ km)
Ceiling: 3700 feet AGL
Clouds: few clouds at 400 feet AGL
scattered clouds at 2200 feet AGL
broken clouds at 3700 feet AGL
Weather: -RA  (light rain)

METAR text: ENGM 020720Z VRB01KT 9999 -RA FEW006 BKN016 08/08 Q1003 TEMPO 35010KT
Conditions at: ENGM (OSLO/GARDERMOEN , NO) observed 0720 UTC 02 October 2022
Temperature: 8.0°C (46°F)
Dewpoint: 8.0°C (46°F) [RH = 100%]
Pressure (altimeter): 29.62 inches Hg (1003.0 mb)
Winds: variable direction winds at 1 MPH (1 knots; 0.5 m/s)
Visibility: 6 or more miles (10+ km)
Ceiling: 1600 feet AGL
Clouds: few clouds at 600 feet AGL
broken clouds at 1600 feet AGL
Weather: -RA  (light rain)

METAR text: ENGM 020650Z 36002KT 9999 -RA FEW006 BKN016 08/07 Q1003 TEMPO BKN012
Conditions at: ENGM (OSLO/GARDERMOEN , NO) observed 0650 UTC 02 October 2022
Temperature: 8.0°C (46°F)
Dewpoint: 7.0°C (45°F) [RH = 93%]
Pressure (altimeter): 29.62 inches Hg (1003.0 mb)
Winds: from the N (360 degrees) at 2 MPH (2 knots; 1.0 m/s)
Visibility: 6 or more miles (10+ km)
Ceiling: 1600 feet AGL
Clouds: few clouds at 600 feet AGL
broken clouds at 1600 feet AGL
Weather: -RA  (light rain)

METAR text: ENGM 020620Z 35003KT 9999 -RA FEW004 BKN017 08/07 Q1003 TEMPO BKN012
Conditions at: ENGM (OSLO/GARDERMOEN , NO) observed 0620 UTC 02 October 2022
Temperature: 8.0°C (46°F)
Dewpoint: 7.0°C (45°F) [RH = 93%]
Pressure (altimeter): 29.62 inches Hg (1003.0 mb)
Winds: from the N (350 degrees) at 3 MPH (3 knots; 1.5 m/s)
Visibility: 6 or more miles (10+ km)
Ceiling: 1700 feet AGL
Clouds: few clouds at 400 feet AGL
broken clouds at 1700 feet AGL
Weather: -RA  (light rain)

METAR text: ENGM 020550Z 35004KT 9999 -RA FEW004 BKN019 08/08 Q1002 TEMPO BKN012
Conditions at: ENGM (OSLO/GARDERMOEN , NO) observed 0550 UTC 02 October 2022
Temperature: 8.0°C (46°F)
Dewpoint: 8.0°C (46°F) [RH = 100%]
Pressure (altimeter): 29.59 inches Hg (1002.0 mb)
Winds: from the N (350 degrees) at 5 MPH (4 knots; 2.1 m/s)
Visibility: 6 or more miles (10+ km)
Ceiling: 1900 feet AGL
Clouds: few clouds at 400 feet AGL
broken clouds at 1900 feet AGL
Weather: -RA  (light rain)

METAR text: ENGM 020520Z 01004KT 9999 -RA FEW003 SCT019 BKN022 08/08 Q1002 TEMPO BKN012
Conditions at: ENGM (OSLO/GARDERMOEN , NO) observed 0520 UTC 02 October 2022
Temperature: 8.0°C (46°F)
Dewpoint: 8.0°C (46°F) [RH = 100%]
Pressure (altimeter): 29.59 inches Hg (1002.0 mb)
Winds: from the N (10 degrees) at 5 MPH (4 knots; 2.1 m/s)
Visibility: 6 or more miles (10+ km)
Ceiling: 2200 feet AGL
Clouds: few clouds at 300 feet AGL
scattered clouds at 1900 feet AGL
broken clouds at 2200 feet AGL
Weather: -RA  (light rain)

METAR text: ENGM 020450Z 02004KT 9000 -SHRA FEW014 SCT017 BKN040 08/08 Q1002 TEMPO BKN012
Conditions at: ENGM (OSLO/GARDERMOEN , NO) observed 0450 UTC 02 October 2022
Temperature: 8.0°C (46°F)
Dewpoint: 8.0°C (46°F) [RH = 100%]
Pressure (altimeter): 29.59 inches Hg (1002.0 mb)
Winds: from the NNE (20 degrees) at 5 MPH (4 knots; 2.1 m/s)
Visibility: 6 miles ( 9 km)
Ceiling: 4000 feet AGL
Clouds: few clouds at 1400 feet AGL
scattered clouds at 1700 feet AGL
broken clouds at 4000 feet AGL
Weather: -SHRA  (light rain showers)

METAR text: ENGM 020420Z 06003KT 9000 -SHRA FEW014 BKN017 08/08 Q1002 TEMPO BKN012
Conditions at: ENGM (OSLO/GARDERMOEN , NO) observed 0420 UTC 02 October 2022
Temperature: 8.0°C (46°F)
Dewpoint: 8.0°C (46°F) [RH = 100%]
Pressure (altimeter): 29.59 inches Hg (1002.0 mb)
Winds: from the ENE (60 degrees) at 3 MPH (3 knots; 1.5 m/s)
Visibility: 6 miles ( 9 km)
Ceiling: 1700 feet AGL
Clouds: few clouds at 1400 feet AGL
broken clouds at 1700 feet AGL
Weather: -SHRA  (light rain showers)

METAR text: ENGM 020350Z 04003KT 9999 -SHRA BKN020 08/07 Q1001 NOSIG
Conditions at: ENGM (OSLO/GARDERMOEN , NO) observed 0350 UTC 02 October 2022
Temperature: 8.0°C (46°F)
Dewpoint: 7.0°C (45°F) [RH = 93%]
Pressure (altimeter): 29.56 inches Hg (1001.0 mb)
Winds: from the NE (40 degrees) at 3 MPH (3 knots; 1.5 m/s)
Visibility: 6 or more miles (10+ km)
Ceiling: 2000 feet AGL
Clouds: broken clouds at 2000 feet AGL
Weather: -SHRA  (light rain showers)

METAR text: ENGM 020320Z 02003KT 9999 -SHRA BKN022 08/07 Q1001
Conditions at: ENGM (OSLO/GARDERMOEN , NO) observed 0320 UTC 02 October 2022
Temperature: 8.0°C (46°F)
Dewpoint: 7.0°C (45°F) [RH = 93%]
Pressure (altimeter): 29.56 inches Hg (1001.0 mb)
Winds: from the NNE (20 degrees) at 3 MPH (3 knots; 1.5 m/s)
Visibility: 6 or more miles (10+ km)
Ceiling: 2200 feet AGL
Clouds: broken clouds at 2200 feet AGL
Weather: -SHRA  (light rain showers)

METAR text: ENGM 020250Z 02004KT 9999 SCT022 BKN039 08/07 Q1001
Conditions at: ENGM (OSLO/GARDERMOEN , NO) observed 0250 UTC 02 October 2022
Temperature: 8.0°C (46°F)
Dewpoint: 7.0°C (45°F) [RH = 93%]
Pressure (altimeter): 29.56 inches Hg (1001.0 mb)
Winds: from the NNE (20 degrees) at 5 MPH (4 knots; 2.1 m/s)
Visibility: 6 or more miles (10+ km)
Ceiling: 3900 feet AGL
Clouds: scattered clouds at 2200 feet AGL
broken clouds at 3900 feet AGL
Weather: no significant weather observed at this time

METAR text: ENGM 020220Z 02003KT 9999 -SHRA BKN022 08/07 Q1001
Conditions at: ENGM (OSLO/GARDERMOEN , NO) observed 0220 UTC 02 October 2022
Temperature: 8.0°C (46°F)
Dewpoint: 7.0°C (45°F) [RH = 93%]
Pressure (altimeter): 29.56 inches Hg (1001.0 mb)
Winds: from the NNE (20 degrees) at 3 MPH (3 knots; 1.5 m/s)
Visibility: 6 or more miles (10+ km)
Ceiling: 2200 feet AGL
Clouds: broken clouds at 2200 feet AGL
Weather: -SHRA  (light rain showers)

METAR text: ENGM 020150Z 03003KT 9999 BKN025 08/07 Q1001
Conditions at: ENGM (OSLO/GARDERMOEN , NO) observed 0150 UTC 02 October 2022
Temperature: 8.0°C (46°F)
Dewpoint: 7.0°C (45°F) [RH = 93%]
Pressure (altimeter): 29.56 inches Hg (1001.0 mb)
Winds: from the NNE (30 degrees) at 3 MPH (3 knots; 1.5 m/s)
Visibility: 6 or more miles (10+ km)
Ceiling: 2500 feet AGL
Clouds: broken clouds at 2500 feet AGL
Weather: no significant weather observed at this time

METAR text: ENGM 020120Z 36003KT 9999 -SHRA BKN032 08/07 Q1001
Conditions at: ENGM (OSLO/GARDERMOEN , NO) observed 0120 UTC 02 October 2022
Temperature: 8.0°C (46°F)
Dewpoint: 7.0°C (45°F) [RH = 93%]
Pressure (altimeter): 29.56 inches Hg (1001.0 mb)
Winds: from the N (360 degrees) at 3 MPH (3 knots; 1.5 m/s)
Visibility: 6 or more miles (10+ km)
Ceiling: 3200 feet AGL
Clouds: broken clouds at 3200 feet AGL
Weather: -SHRA  (light rain showers)

METAR text: ENGM 020050Z 02003KT 9999 BKN033 08/07 Q1001
Conditions at: ENGM (OSLO/GARDERMOEN , NO) observed 0050 UTC 02 October 2022
Temperature: 8.0°C (46°F)
Dewpoint: 7.0°C (45°F) [RH = 93%]
Pressure (altimeter): 29.56 inches Hg (1001.0 mb)
Winds: from the NNE (20 degrees) at 3 MPH (3 knots; 1.5 m/s)
Visibility: 6 or more miles (10+ km)
Ceiling: 3300 feet AGL
Clouds: broken clouds at 3300 feet AGL
Weather: no significant weather observed at this time

METAR text: ENGM 020020Z 03003KT 360V070 9999 BKN035 08/07 Q1000
Conditions at: ENGM (OSLO/GARDERMOEN , NO) observed 0020 UTC 02 October 2022
Temperature: 8.0°C (46°F)
Dewpoint: 7.0°C (45°F) [RH = 93%]
Pressure (altimeter): 29.53 inches Hg (1000.0 mb)
Winds: from the NNE (30 degrees) at 3 MPH (3 knots; 1.5 m/s)
Visibility: 6 or more miles (10+ km)
Ceiling: 3500 feet AGL
Clouds: broken clouds at 3500 feet AGL
Weather: no significant weather observed at this time

METAR text: ENGM 012350Z 36002KT 9999 OVC045 08/07 Q1000
Conditions at: ENGM (OSLO/GARDERMOEN , NO) observed 2350 UTC 01 October 2022
Temperature: 8.0°C (46°F)
Dewpoint: 7.0°C (45°F) [RH = 93%]
Pressure (altimeter): 29.53 inches Hg (1000.0 mb)
Winds: from the N (360 degrees) at 2 MPH (2 knots; 1.0 m/s)
Visibility: 6 or more miles (10+ km)
Ceiling: 4500 feet AGL
Clouds: overcast cloud deck at 4500 feet AGL
Weather: no significant weather observed at this time

METAR text: ENGM 012320Z 03002KT 9999 OVC047 08/07 Q1000
Conditions at: ENGM (OSLO/GARDERMOEN , NO) observed 2320 UTC 01 October 2022
Temperature: 8.0°C (46°F)
Dewpoint: 7.0°C (45°F) [RH = 93%]
Pressure (altimeter): 29.53 inches Hg (1000.0 mb)
Winds: from the NNE (30 degrees) at 2 MPH (2 knots; 1.0 m/s)
Visibility: 6 or more miles (10+ km)
Ceiling: 4700 feet AGL
Clouds: overcast cloud deck at 4700 feet AGL
Weather: no significant weather observed at this time

METAR text: ENGM 012250Z 06002KT 9999 FEW038 SCT047 BKN069 09/07 Q1000
Conditions at: ENGM (OSLO/GARDERMOEN , NO) observed 2250 UTC 01 October 2022
Temperature: 9.0°C (48°F)
Dewpoint: 7.0°C (45°F) [RH = 87%]
Pressure (altimeter): 29.53 inches Hg (1000.0 mb)
Winds: from the ENE (60 degrees) at 2 MPH (2 knots; 1.0 m/s)
Visibility: 6 or more miles (10+ km)
Ceiling: 6900 feet AGL
Clouds: few clouds at 3800 feet AGL
scattered clouds at 4700 feet AGL
broken clouds at 6900 feet AGL
Weather: no significant weather observed at this time

METAR text: ENGM 012220Z VRB02KT 9999 -RA FEW035 SCT043 BKN063 09/08 Q1000
Conditions at: ENGM (OSLO/GARDERMOEN , NO) observed 2220 UTC 01 October 2022
Temperature: 9.0°C (48°F)
Dewpoint: 8.0°C (46°F) [RH = 93%]
Pressure (altimeter): 29.53 inches Hg (1000.0 mb)
Winds: variable direction winds at 2 MPH (2 knots; 1.0 m/s)
Visibility: 6 or more miles (10+ km)
Ceiling: 6300 feet AGL
Clouds: few clouds at 3500 feet AGL
scattered clouds at 4300 feet AGL
broken clouds at 6300 feet AGL
Weather: -RA  (light rain)

METAR text: ENGM 012150Z 10002KT 9999 BKN048 09/08 Q1000
Conditions at: ENGM (OSLO/GARDERMOEN , NO) observed 2150 UTC 01 October 2022
Temperature: 9.0°C (48°F)
Dewpoint: 8.0°C (46°F) [RH = 93%]
Pressure (altimeter): 29.53 inches Hg (1000.0 mb)
Winds: from the E (100 degrees) at 2 MPH (2 knots; 1.0 m/s)
Visibility: 6 or more miles (10+ km)
Ceiling: 4800 feet AGL
Clouds: broken clouds at 4800 feet AGL
Weather: no significant weather observed at this time

METAR text: ENGM 012120Z 13003KT 9999 VCSH SCT024 BKN050 09/08 Q1000
Conditions at: ENGM (OSLO/GARDERMOEN , NO) observed 2120 UTC 01 October 2022
Temperature: 9.0°C (48°F)
Dewpoint: 8.0°C (46°F) [RH = 93%]
Pressure (altimeter): 29.53 inches Hg (1000.0 mb)
Winds: from the SE (130 degrees) at 3 MPH (3 knots; 1.5 m/s)
Visibility: 6 or more miles (10+ km)
Ceiling: 5000 feet AGL
Clouds: scattered clouds at 2400 feet AGL
broken clouds at 5000 feet AGL
Weather: VCSH  (showers in vicinity)

METAR text: ENGM 012050Z 15005KT 9999 -SHRA SCT024 BKN050 09/08 Q1000 TEMPO SHRA BKN012 FEW020CB
Conditions at: ENGM (OSLO/GARDERMOEN , NO) observed 2050 UTC 01 October 2022
Temperature: 9.0°C (48°F)
Dewpoint: 8.0°C (46°F) [RH = 93%]
Pressure (altimeter): 29.53 inches Hg (1000.0 mb)
Winds: from the SSE (150 degrees) at 6 MPH (5 knots; 2.6 m/s)
Visibility: 6 or more miles (10+ km)
Ceiling: 5000 feet AGL
Clouds: scattered clouds at 2400 feet AGL
broken clouds at 5000 feet AGL
Weather: -SHRA  (light rain showers)

METAR text: ENGM 012020Z VRB02KT 9999 FEW016 SCT018 BKN024 09/08 Q0999 TEMPO SHRA BKN012 FEW020CB
Conditions at: ENGM (OSLO/GARDERMOEN , NO) observed 2020 UTC 01 October 2022
Temperature: 9.0°C (48°F)
Dewpoint: 8.0°C (46°F) [RH = 93%]
Pressure (altimeter): 29.50 inches Hg (999.0 mb)
Winds: variable direction winds at 2 MPH (2 knots; 1.0 m/s)
Visibility: 6 or more miles (10+ km)
Ceiling: 2400 feet AGL
Clouds: few clouds at 1600 feet AGL
scattered clouds at 1800 feet AGL
broken clouds at 2400 feet AGL
Weather: no significant weather observed at this time

METAR text: ENGM 011950Z 34002KT 9999 BKN030 09/08 Q0999 TEMPO SHRA
Conditions at: ENGM (OSLO/GARDERMOEN , NO) observed 1950 UTC 01 October 2022
Temperature: 9.0°C (48°F)
Dewpoint: 8.0°C (46°F) [RH = 93%]
Pressure (altimeter): 29.50 inches Hg (999.0 mb)
Winds: from the NNW (340 degrees) at 2 MPH (2 knots; 1.0 m/s)
Visibility: 6 or more miles (10+ km)
Ceiling: 3000 feet AGL
Clouds: broken clouds at 3000 feet AGL
Weather: no significant weather observed at this time

METAR text: ENGM 011920Z VRB01KT 9999 BKN028 09/08 Q0999 TEMPO SHRA
Conditions at: ENGM (OSLO/GARDERMOEN , NO) observed 1920 UTC 01 October 2022
Temperature: 9.0°C (48°F)
Dewpoint: 8.0°C (46°F) [RH = 93%]
Pressure (altimeter): 29.50 inches Hg (999.0 mb)
Winds: variable direction winds at 1 MPH (1 knots; 0.5 m/s)
Visibility: 6 or more miles (10+ km)
Ceiling: 2800 feet AGL
Clouds: broken clouds at 2800 feet AGL
Weather: no significant weather observed at this time

METAR text: ENGM 011850Z 10003KT 060V140 9999 SCT043 OVC090 09/08 Q0999 TEMPO SHRA
Conditions at: ENGM (OSLO/GARDERMOEN , NO) observed 1850 UTC 01 October 2022
Temperature: 9.0°C (48°F)
Dewpoint: 8.0°C (46°F) [RH = 93%]
Pressure (altimeter): 29.50 inches Hg (999.0 mb)
Winds: from the E (100 degrees) at 3 MPH (3 knots; 1.5 m/s)
Visibility: 6 or more miles (10+ km)
Ceiling: 9000 feet AGL
Clouds: scattered clouds at 4300 feet AGL
overcast cloud deck at 9000 feet AGL
Weather: no significant weather observed at this time

METAR text: ENGM 011820Z 11004KT 9999 SCT040 OVC100 10/08 Q0999 NOSIG
Conditions at: ENGM (OSLO/GARDERMOEN , NO) observed 1820 UTC 01 October 2022
Temperature: 10.0°C (50°F)
Dewpoint: 8.0°C (46°F) [RH = 87%]
Pressure (altimeter): 29.50 inches Hg (999.0 mb)
Winds: from the ESE (110 degrees) at 5 MPH (4 knots; 2.1 m/s)
Visibility: 6 or more miles (10+ km)
Ceiling: 10000 feet AGL
Clouds: scattered clouds at 4000 feet AGL
overcast cloud deck at 10000 feet AGL
Weather: no significant weather observed at this time

METAR text: ENGM 011750Z 10004KT 9999 FEW029 SCT040 OVC100 10/09 Q0999 NOSIG
Conditions at: ENGM (OSLO/GARDERMOEN , NO) observed 1750 UTC 01 October 2022
Temperature: 10.0°C (50°F)
Dewpoint: 9.0°C (48°F) [RH = 93%]
Pressure (altimeter): 29.50 inches Hg (999.0 mb)
Winds: from the E (100 degrees) at 5 MPH (4 knots; 2.1 m/s)
Visibility: 6 or more miles (10+ km)
Ceiling: 10000 feet AGL
Clouds: few clouds at 2900 feet AGL
scattered clouds at 4000 feet AGL
overcast cloud deck at 10000 feet AGL
Weather: no significant weather observed at this time

METAR text: ENGM 011720Z 12003KT 080V170 9999 FEW028 SCT058 BKN098 10/09 Q0999 NOSIG
Conditions at: ENGM (OSLO/GARDERMOEN , NO) observed 1720 UTC 01 October 2022
Temperature: 10.0°C (50°F)
Dewpoint: 9.0°C (48°F) [RH = 93%]
Pressure (altimeter): 29.50 inches Hg (999.0 mb)
Winds: from the ESE (120 degrees) at 3 MPH (3 knots; 1.5 m/s)
Visibility: 6 or more miles (10+ km)
Ceiling: 9800 feet AGL
Clouds: few clouds at 2800 feet AGL
scattered clouds at 5800 feet AGL
broken clouds at 9800 feet AGL
Weather: no significant weather observed at this time

METAR text: ENGM 011650Z 09003KT 060V130 9999 -RA SCT030 BKN067 10/09 Q0999 NOSIG
Conditions at: ENGM (OSLO/GARDERMOEN , NO) observed 1650 UTC 01 October 2022
Temperature: 10.0°C (50°F)
Dewpoint: 9.0°C (48°F) [RH = 93%]
Pressure (altimeter): 29.50 inches Hg (999.0 mb)
Winds: from the E (90 degrees) at 3 MPH (3 knots; 1.5 m/s)
Visibility: 6 or more miles (10+ km)
Ceiling: 6700 feet AGL
Clouds: scattered clouds at 3000 feet AGL
broken clouds at 6700 feet AGL
Weather: -RA  (light rain)

METAR text: ENGM 011620Z 10003KT 9999 -RA FEW022 BKN032 10/09 Q0999 NOSIG
Conditions at: ENGM (OSLO/GARDERMOEN , NO) observed 1620 UTC 01 October 2022
Temperature: 10.0°C (50°F)
Dewpoint: 9.0°C (48°F) [RH = 93%]
Pressure (altimeter): 29.50 inches Hg (999.0 mb)
Winds: from the E (100 degrees) at 3 MPH (3 knots; 1.5 m/s)
Visibility: 6 or more miles (10+ km)
Ceiling: 3200 feet AGL
Clouds: few clouds at 2200 feet AGL
broken clouds at 3200 feet AGL
Weather: -RA  (light rain)

METAR text: ENGM 011550Z 16004KT 9000 -RA FEW017 OVC020 10/09 Q0999 NOSIG
Conditions at: ENGM (OSLO/GARDERMOEN , NO) observed 1550 UTC 01 October 2022
Temperature: 10.0°C (50°F)
Dewpoint: 9.0°C (48°F) [RH = 93%]
Pressure (altimeter): 29.50 inches Hg (999.0 mb)
Winds: from the SSE (160 degrees) at 5 MPH (4 knots; 2.1 m/s)
Visibility: 6 miles ( 9 km)
Ceiling: 2000 feet AGL
Clouds: few clouds at 1700 feet AGL
overcast cloud deck at 2000 feet AGL
Weather: -RA  (light rain)

METAR text: ENGM 011520Z 14004KT 9000 -RA BKN021 10/09 Q0999
Conditions at: ENGM (OSLO/GARDERMOEN , NO) observed 1520 UTC 01 October 2022
Temperature: 10.0°C (50°F)
Dewpoint: 9.0°C (48°F) [RH = 93%]
Pressure (altimeter): 29.50 inches Hg (999.0 mb)
Winds: from the SE (140 degrees) at 5 MPH (4 knots; 2.1 m/s)
Visibility: 6 miles ( 9 km)
Ceiling: 2100 feet AGL
Clouds: broken clouds at 2100 feet AGL
Weather: -RA  (light rain)

METAR text: ENGM 011450Z 15006KT 9000 -RA FEW017 BKN046 10/09 Q0999 NOSIG
Conditions at: ENGM (OSLO/GARDERMOEN , NO) observed 1450 UTC 01 October 2022
Temperature: 10.0°C (50°F)
Dewpoint: 9.0°C (48°F) [RH = 93%]
Pressure (altimeter): 29.50 inches Hg (999.0 mb)
Winds: from the SSE (150 degrees) at 7 MPH (6 knots; 3.1 m/s)
Visibility: 6 miles ( 9 km)
Ceiling: 4600 feet AGL
Clouds: few clouds at 1700 feet AGL
broken clouds at 4600 feet AGL
Weather: -RA  (light rain)

METAR text: ENGM 011350Z 14007KT 110V170 9000 -RA FEW014 BKN045 10/09 Q0999
Conditions at: ENGM (OSLO/GARDERMOEN , NO) observed 1350 UTC 01 October 2022
Temperature: 10.0°C (50°F)
Dewpoint: 9.0°C (48°F) [RH = 93%]
Pressure (altimeter): 29.50 inches Hg (999.0 mb)
Winds: from the SE (140 degrees) at 8 MPH (7 knots; 3.6 m/s)
Visibility: 6 miles ( 9 km)
Ceiling: 4500 feet AGL
Clouds: few clouds at 1400 feet AGL
broken clouds at 4500 feet AGL
Weather: -RA  (light rain)

METAR text: ENGM 011320Z 15008KT 9000 -RA FEW017 BKN040 10/09 Q0999 NOSIG
Conditions at: ENGM (OSLO/GARDERMOEN , NO) observed 1320 UTC 01 October 2022
Temperature: 10.0°C (50°F)
Dewpoint: 9.0°C (48°F) [RH = 93%]
Pressure (altimeter): 29.50 inches Hg (999.0 mb)
Winds: from the SSE (150 degrees) at 9 MPH (8 knots; 4.1 m/s)
Visibility: 6 miles ( 9 km)
Ceiling: 4000 feet AGL
Clouds: few clouds at 1700 feet AGL
broken clouds at 4000 feet AGL
Weather: -RA  (light rain)

METAR text: ENGM 011250Z 16009KT 9999 -RA FEW017 BKN041 10/09 Q0999
Conditions at: ENGM (OSLO/GARDERMOEN , NO) observed 1250 UTC 01 October 2022
Temperature: 10.0°C (50°F)
Dewpoint: 9.0°C (48°F) [RH = 93%]
Pressure (altimeter): 29.50 inches Hg (999.0 mb)
Winds: from the SSE (160 degrees) at 10 MPH (9 knots; 4.6 m/s)
Visibility: 6 or more miles (10+ km)
Ceiling: 4100 feet AGL
Clouds: few clouds at 1700 feet AGL
broken clouds at 4100 feet AGL
Weather: -RA  (light rain)

METAR text: ENGM 011220Z 16009KT 9999 -RA FEW016 SCT018 OVC037 10/09 Q0999 TEMPO BKN014
Conditions at: ENGM (OSLO/GARDERMOEN , NO) observed 1220 UTC 01 October 2022
Temperature: 10.0°C (50°F)
Dewpoint: 9.0°C (48°F) [RH = 93%]
Pressure (altimeter): 29.50 inches Hg (999.0 mb)
Winds: from the SSE (160 degrees) at 10 MPH (9 knots; 4.6 m/s)
Visibility: 6 or more miles (10+ km)
Ceiling: 3700 feet AGL
Clouds: few clouds at 1600 feet AGL
scattered clouds at 1800 feet AGL
overcast cloud deck at 3700 feet AGL
Weather: -RA  (light rain)

METAR text: ENGM 011150Z 15009KT 9999 -RA SCT014 BKN019 10/08 Q0998 TEMPO BKN014
Conditions at: ENGM (OSLO/GARDERMOEN , NO) observed 1150 UTC 01 October 2022
Temperature: 10.0°C (50°F)
Dewpoint: 8.0°C (46°F) [RH = 87%]
Pressure (altimeter): 29.47 inches Hg (998.0 mb)
Winds: from the SSE (150 degrees) at 10 MPH (9 knots; 4.6 m/s)
Visibility: 6 or more miles (10+ km)
Ceiling: 1900 feet AGL
Clouds: scattered clouds at 1400 feet AGL
broken clouds at 1900 feet AGL
Weather: -RA  (light rain)

METAR text: ENGM 011120Z 15010KT 9999 -RA FEW013 SCT016 OVC041 11/08 Q0998 NOSIG
Conditions at: ENGM (OSLO/GARDERMOEN , NO) observed 1120 UTC 01 October 2022
Temperature: 11.0°C (52°F)
Dewpoint: 8.0°C (46°F) [RH = 82%]
Pressure (altimeter): 29.47 inches Hg (998.0 mb)
Winds: from the SSE (150 degrees) at 12 MPH (10 knots; 5.1 m/s)
Visibility: 6 or more miles (10+ km)
Ceiling: 4100 feet AGL
Clouds: few clouds at 1300 feet AGL
scattered clouds at 1600 feet AGL
overcast cloud deck at 4100 feet AGL
Weather: -RA  (light rain)

METAR text: ENGM 011050Z 15010KT 9999 -RA FEW013 BKN019 11/09 Q0998 TEMPO BKN012
Conditions at: ENGM (OSLO/GARDERMOEN , NO) observed 1050 UTC 01 October 2022
Temperature: 11.0°C (52°F)
Dewpoint: 9.0°C (48°F) [RH = 87%]
Pressure (altimeter): 29.47 inches Hg (998.0 mb)
Winds: from the SSE (150 degrees) at 12 MPH (10 knots; 5.1 m/s)
Visibility: 6 or more miles (10+ km)
Ceiling: 1900 feet AGL
Clouds: few clouds at 1300 feet AGL
broken clouds at 1900 feet AGL
Weather: -RA  (light rain)

METAR text: ENGM 011020Z 15011G22KT 9999 -RA BKN012 10/08 Q0998 TEMPO BKN015
Conditions at: ENGM (OSLO/GARDERMOEN , NO) observed 1020 UTC 01 October 2022
Temperature: 10.0°C (50°F)
Dewpoint: 8.0°C (46°F) [RH = 87%]
Pressure (altimeter): 29.47 inches Hg (998.0 mb)
Winds: from the SSE (150 degrees) at 13 MPH (11 knots; 5.7 m/s)
gusting to 25 MPH (22 knots; 11.3 m/s)
Visibility: 6 or more miles (10+ km)
Ceiling: 1200 feet AGL
Clouds: broken clouds at 1200 feet AGL
Weather: -RA  (light rain)

METAR text: ENGM 010950Z 15011KT 9999 -RA SCT013 BKN015 10/09 Q0998 TEMPO BKN013
Conditions at: ENGM (OSLO/GARDERMOEN , NO) observed 0950 UTC 01 October 2022
Temperature: 10.0°C (50°F)
Dewpoint: 9.0°C (48°F) [RH = 93%]
Pressure (altimeter): 29.47 inches Hg (998.0 mb)
Winds: from the SSE (150 degrees) at 13 MPH (11 knots; 5.7 m/s)
Visibility: 6 or more miles (10+ km)
Ceiling: 1500 feet AGL
Clouds: scattered clouds at 1300 feet AGL
broken clouds at 1500 feet AGL
Weather: -RA  (light rain)

METAR text: ENGM 010920Z 15010KT 9999 -RA SCT009 BKN012 10/09 Q0998 NOSIG
Conditions at: ENGM (OSLO/GARDERMOEN , NO) observed 0920 UTC 01 October 2022
Temperature: 10.0°C (50°F)
Dewpoint: 9.0°C (48°F) [RH = 93%]
Pressure (altimeter): 29.47 inches Hg (998.0 mb)
Winds: from the SSE (150 degrees) at 12 MPH (10 knots; 5.1 m/s)
Visibility: 6 or more miles (10+ km)
Ceiling: 1200 feet AGL
Clouds: scattered clouds at 900 feet AGL
broken clouds at 1200 feet AGL
Weather: -RA  (light rain)

METAR text: ENGM 010850Z 15011KT 9999 -RA SCT008 BKN010 10/09 Q0998 NOSIG
Conditions at: ENGM (OSLO/GARDERMOEN , NO) observed 0850 UTC 01 October 2022
Temperature: 10.0°C (50°F)
Dewpoint: 9.0°C (48°F) [RH = 93%]
Pressure (altimeter): 29.47 inches Hg (998.0 mb)
Winds: from the SSE (150 degrees) at 13 MPH (11 knots; 5.7 m/s)
Visibility: 6 or more miles (10+ km)
Ceiling: 1000 feet AGL
Clouds: scattered clouds at 800 feet AGL
broken clouds at 1000 feet AGL
Weather: -RA  (light rain)

METAR text: ENGM 010820Z 16010KT 9000 -RA OVC007 10/09 Q0998 NOSIG
Conditions at: ENGM (OSLO/GARDERMOEN , NO) observed 0820 UTC 01 October 2022
Temperature: 10.0°C (50°F)
Dewpoint: 9.0°C (48°F) [RH = 93%]
Pressure (altimeter): 29.47 inches Hg (998.0 mb)
Winds: from the SSE (160 degrees) at 12 MPH (10 knots; 5.1 m/s)
Visibility: 6 miles ( 9 km)
Ceiling: 700 feet AGL
Clouds: overcast cloud deck at 700 feet AGL
Weather: -RA  (light rain)

METAR text: ENGM 010750Z 15010KT 9000 -RA OVC008 10/08 Q0998 NOSIG
Conditions at: ENGM (OSLO/GARDERMOEN , NO) observed 0750 UTC 01 October 2022
Temperature: 10.0°C (50°F)
Dewpoint: 8.0°C (46°F) [RH = 87%]
Pressure (altimeter): 29.47 inches Hg (998.0 mb)
Winds: from the SSE (150 degrees) at 12 MPH (10 knots; 5.1 m/s)
Visibility: 6 miles ( 9 km)
Ceiling: 800 feet AGL
Clouds: overcast cloud deck at 800 feet AGL
Weather: -RA  (light rain)

METAR text: ENGM 010720Z 15010KT 9000 -RA FEW006 OVC008 09/08 Q0998 NOSIG
Conditions at: ENGM (OSLO/GARDERMOEN , NO) observed 0720 UTC 01 October 2022
Temperature: 9.0°C (48°F)
Dewpoint: 8.0°C (46°F) [RH = 93%]
Pressure (altimeter): 29.47 inches Hg (998.0 mb)
Winds: from the SSE (150 degrees) at 12 MPH (10 knots; 5.1 m/s)
Visibility: 6 miles ( 9 km)
Ceiling: 800 feet AGL
Clouds: few clouds at 600 feet AGL
overcast cloud deck at 800 feet AGL
Weather: -RA  (light rain)

METAR text: ENGM 010650Z 14010KT 8000 -RA OVC007 09/08 Q0998 NOSIG
Conditions at: ENGM (OSLO/GARDERMOEN , NO) observed 0650 UTC 01 October 2022
Temperature: 9.0°C (48°F)
Dewpoint: 8.0°C (46°F) [RH = 93%]
Pressure (altimeter): 29.47 inches Hg (998.0 mb)
Winds: from the SE (140 degrees) at 12 MPH (10 knots; 5.1 m/s)
Visibility: 5 miles ( 8 km)
Ceiling: 700 feet AGL
Clouds: overcast cloud deck at 700 feet AGL
Weather: -RA  (light rain)

Forecast for: ENGM (OSLO/GARDERMOEN , NO)
Text: TAF ENGM 0218/0318 34005KT 9999 FEW002 SCT070
Forecast period: 1800 UTC 02 October 2022 to 1800 UTC 03 October 2022
Forecast type: FROM: standard forecast or significant change
Winds: from the NNW (340 degrees) at 6 MPH (5 knots; 2.6 m/s)
Visibility: 6 or more miles (10+ km)
Ceiling: at least 12,000 feet AGL
Clouds: few clouds at 200 feet AGL
scattered clouds at 7000 feet AGL
Weather: no significant weather forecast for this period
Text: PROB40 0222/0307 0800 FG VV002
Forecast period: 2200 UTC 02 October 2022 to 0700 UTC 03 October 2022
Forecast type: PROBABLE: 40 percent likelihood of the following during this time
Visibility: 0.50 miles (0.80 km)
Ceiling: indefinite ceiling with vertical visibility of 200 feet AGL
Clouds: obscured sky
Weather: FG  (fog)